createdAt,value
2023-05-14T00:00:45.623Z,0.00
2023-05-14T00:01:45.604Z,0.00
2023-05-14T00:02:45.688Z,0.00
2023-05-14T00:03:45.690Z,0.00
2023-05-14T00:04:45.568Z,0.00
2023-05-14T00:05:45.550Z,0.00
2023-05-14T00:06:45.525Z,0.00
2023-05-14T00:07:45.537Z,0.00
2023-05-14T00:08:45.510Z,0.00
2023-05-14T00:09:45.497Z,0.00
2023-05-14T00:10:45.505Z,0.00
2023-05-14T00:11:45.480Z,0.00
2023-05-14T00:12:45.466Z,0.00
2023-05-14T00:13:45.474Z,0.00
2023-05-14T00:14:45.441Z,0.00
2023-05-14T00:15:45.509Z,0.00
2023-05-14T00:16:45.441Z,0.00
2023-05-14T00:17:45.462Z,0.00
2023-05-14T00:18:45.452Z,0.00
2023-05-14T00:19:45.417Z,0.00
2023-05-14T00:20:45.391Z,0.00
2023-05-14T00:21:45.387Z,0.00
2023-05-14T00:22:45.439Z,0.00
2023-05-14T00:23:45.409Z,0.00
2023-05-14T00:24:45.332Z,0.00
2023-05-14T00:25:45.364Z,0.00
2023-05-14T00:26:45.347Z,0.00
2023-05-14T00:27:45.351Z,0.00
2023-05-14T00:28:45.294Z,0.00
2023-05-14T00:29:45.296Z,0.00
2023-05-14T00:30:46.216Z,0.00
2023-05-14T00:31:45.352Z,0.00
2023-05-14T00:32:45.286Z,0.00
2023-05-14T00:33:45.242Z,0.00
2023-05-14T00:34:45.252Z,0.00
2023-05-14T00:35:45.251Z,0.00
2023-05-14T00:36:45.227Z,0.00
2023-05-14T00:37:45.204Z,0.00
2023-05-14T00:38:45.182Z,0.00
2023-05-14T00:39:45.176Z,0.00
2023-05-14T00:40:45.180Z,0.00
2023-05-14T00:41:45.158Z,0.00
2023-05-14T00:42:45.188Z,0.00
2023-05-14T00:43:45.142Z,0.00
2023-05-14T00:44:45.122Z,0.00
2023-05-14T00:45:45.129Z,0.00
2023-05-14T00:46:45.152Z,0.00
2023-05-14T00:47:45.113Z,0.00
2023-05-14T00:48:45.078Z,0.00
2023-05-14T00:49:45.069Z,0.00
2023-05-14T00:50:45.075Z,0.00
2023-05-14T00:51:45.058Z,0.00
2023-05-14T00:52:45.044Z,0.00
2023-05-14T00:53:45.025Z,0.00
2023-05-14T00:54:45.014Z,0.00
2023-05-14T00:55:45.021Z,0.00
2023-05-14T00:56:44.989Z,0.00
2023-05-14T00:57:45.025Z,0.00
2023-05-14T00:58:44.990Z,0.00
2023-05-14T00:59:44.977Z,0.00
2023-05-14T01:00:44.978Z,0.00
2023-05-14T01:01:44.941Z,0.00
2023-05-14T01:02:45.031Z,0.00
2023-05-14T01:03:45.023Z,0.00
2023-05-14T01:04:44.926Z,0.00
2023-05-14T01:05:44.910Z,0.00
2023-05-14T01:06:51.932Z,0.00
2023-05-14T01:07:44.900Z,0.00
2023-05-14T01:08:44.856Z,0.00
2023-05-14T01:09:44.857Z,0.00
2023-05-14T01:10:44.865Z,0.00
2023-05-14T01:11:44.824Z,0.00
2023-05-14T01:12:44.824Z,0.00
2023-05-14T01:13:44.807Z,0.00
2023-05-14T01:14:44.825Z,0.00
2023-05-14T01:15:44.790Z,0.00
2023-05-14T01:16:44.850Z,0.00
2023-05-14T01:17:44.817Z,0.00
2023-05-14T01:18:44.786Z,0.00
2023-05-14T01:19:44.809Z,0.00
2023-05-14T01:20:44.751Z,0.00
2023-05-14T01:21:44.722Z,0.00
2023-05-14T01:22:44.703Z,0.00
2023-05-14T01:23:44.710Z,0.00
2023-05-14T01:24:44.686Z,0.00
2023-05-14T01:25:44.691Z,0.00
2023-05-14T01:26:44.690Z,0.00
2023-05-14T01:27:44.656Z,0.00
2023-05-14T01:28:44.640Z,0.00
2023-05-14T01:29:44.653Z,0.00
2023-05-14T01:30:44.638Z,0.00
2023-05-14T01:31:44.676Z,0.00
2023-05-14T01:32:44.648Z,0.00
2023-05-14T01:33:44.629Z,0.00
2023-05-14T01:34:44.576Z,0.00
2023-05-14T01:35:44.583Z,0.00
2023-05-14T01:36:44.557Z,0.00
2023-05-14T01:37:44.545Z,0.00
2023-05-14T01:38:44.549Z,0.00
2023-05-14T01:39:44.527Z,0.00
2023-05-14T01:40:44.518Z,0.00
2023-05-14T01:41:44.495Z,0.00
2023-05-14T01:42:44.566Z,0.00
2023-05-14T01:43:44.474Z,0.00
2023-05-14T01:44:44.459Z,0.00
2023-05-14T01:45:44.501Z,0.00
2023-05-14T01:46:44.479Z,0.00
2023-05-14T01:47:44.474Z,0.00
2023-05-14T01:48:44.423Z,0.00
2023-05-14T01:49:44.431Z,0.00
2023-05-14T01:50:44.404Z,0.00
2023-05-14T01:51:44.405Z,0.00
2023-05-14T01:52:44.379Z,0.00
2023-05-14T01:53:44.371Z,0.00
2023-05-14T01:54:44.373Z,0.00
2023-05-14T01:55:44.374Z,0.00
2023-05-14T01:56:44.331Z,0.00
2023-05-14T01:57:44.317Z,0.00
2023-05-14T01:58:44.356Z,0.00
2023-05-14T01:59:44.739Z,0.00
2023-05-14T02:00:44.315Z,0.00
2023-05-14T02:01:44.341Z,0.00
2023-05-14T02:02:44.286Z,0.00
2023-05-14T02:03:44.280Z,0.00
2023-05-14T02:04:44.267Z,0.00
2023-05-14T02:05:44.243Z,0.00
2023-05-14T02:06:44.217Z,0.00
2023-05-14T02:07:44.213Z,0.00
2023-05-14T02:08:44.194Z,0.00
2023-05-14T02:09:44.199Z,0.00
2023-05-14T02:10:44.178Z,0.00
2023-05-14T02:11:44.215Z,0.00
2023-05-14T02:12:44.156Z,0.00
2023-05-14T02:13:44.147Z,0.00
2023-05-14T02:14:44.741Z,0.00
2023-05-14T02:15:44.130Z,0.00
2023-05-14T02:16:44.120Z,0.00
2023-05-14T02:17:44.150Z,0.00
2023-05-14T02:18:44.144Z,0.00
2023-05-14T02:19:44.078Z,0.00
2023-05-14T02:20:44.070Z,0.00
2023-05-14T02:21:44.071Z,0.00
2023-05-14T02:22:44.063Z,0.00
2023-05-14T02:23:44.032Z,0.00
2023-05-14T02:24:44.026Z,0.00
2023-05-14T02:25:44.058Z,0.00
2023-05-14T02:26:44.027Z,0.00
2023-05-14T02:27:44.008Z,0.00
2023-05-14T02:28:43.982Z,0.00
2023-05-14T02:29:43.975Z,0.00
2023-05-14T02:30:43.996Z,0.00
2023-05-14T02:31:43.985Z,0.00
2023-05-14T02:32:44.042Z,0.00
2023-05-14T02:33:43.963Z,0.00
2023-05-14T02:34:43.932Z,0.00
2023-05-14T02:35:43.916Z,0.00
2023-05-14T02:36:43.899Z,0.00
2023-05-14T02:37:43.878Z,0.00
2023-05-14T02:38:43.879Z,0.00
2023-05-14T02:39:43.886Z,0.00
2023-05-14T02:40:43.855Z,0.00
2023-05-14T02:41:43.850Z,0.00
2023-05-14T02:42:43.859Z,0.00
2023-05-14T02:43:43.843Z,0.00
2023-05-14T02:44:43.825Z,0.00
2023-05-14T02:45:43.798Z,0.00
2023-05-14T02:46:43.875Z,0.00
2023-05-14T02:47:43.860Z,0.00
2023-05-14T02:48:43.776Z,0.00
2023-05-14T02:49:43.781Z,0.00
2023-05-14T02:50:43.763Z,0.00
2023-05-14T02:51:43.747Z,0.00
2023-05-14T02:52:43.726Z,0.00
2023-05-14T02:53:43.707Z,0.00
2023-05-14T02:54:43.694Z,0.00
2023-05-14T02:55:43.698Z,0.00
2023-05-14T02:56:43.691Z,4.00
2023-05-14T02:57:43.667Z,4.00
2023-05-14T02:58:43.655Z,0.00
2023-05-14T02:59:43.667Z,0.00
2023-05-14T03:00:43.721Z,4.00
2023-05-14T03:01:43.720Z,4.00
2023-05-14T03:02:43.864Z,4.00
2023-05-14T03:03:43.607Z,4.00
2023-05-14T03:04:43.597Z,4.00
2023-05-14T03:05:43.610Z,8.00
2023-05-14T03:06:43.588Z,4.00
2023-05-14T03:10:27.663Z,12.00
2023-05-14T03:11:27.639Z,12.00
2023-05-14T03:12:27.626Z,12.00
2023-05-14T03:13:27.642Z,16.00
2023-05-14T03:14:27.597Z,20.00
2023-05-14T03:15:27.584Z,20.00
2023-05-14T03:16:27.663Z,24.00
2023-05-14T03:17:27.628Z,28.00
2023-05-14T03:18:27.584Z,32.00
2023-05-14T03:19:27.541Z,36.00
2023-05-14T03:20:27.532Z,40.00
2023-05-14T03:21:27.555Z,44.00
2023-05-14T03:22:27.556Z,48.00
2023-05-14T03:23:27.499Z,56.00
2023-05-14T03:24:27.509Z,64.00
2023-05-14T03:25:27.526Z,72.00
2023-05-14T03:26:27.479Z,80.00
2023-05-14T03:27:27.495Z,88.00
2023-05-14T03:28:27.446Z,96.00
2023-05-14T03:29:27.443Z,108.00
2023-05-14T03:30:27.541Z,120.00
2023-05-14T03:31:27.523Z,132.00
2023-05-14T03:32:27.441Z,148.00
2023-05-14T03:33:27.425Z,160.00
2023-05-14T03:34:27.382Z,176.00
2023-05-14T03:35:27.366Z,188.00
2023-05-14T03:36:27.373Z,208.00
2023-05-14T03:37:27.355Z,224.00
2023-05-14T03:38:27.377Z,244.00
2023-05-14T03:39:27.330Z,264.00
2023-05-14T03:40:27.334Z,284.00
2023-05-14T03:41:27.330Z,308.00
2023-05-14T03:42:27.296Z,328.00
2023-05-14T03:43:27.281Z,356.00
2023-05-14T03:44:27.281Z,380.00
2023-05-14T03:45:27.290Z,408.00
2023-05-14T03:46:27.299Z,436.00
2023-05-14T03:47:27.260Z,468.00
2023-05-14T03:48:27.381Z,496.00
2023-05-14T03:49:27.213Z,528.00
2023-05-14T03:50:27.220Z,560.00
2023-05-14T03:51:27.195Z,596.00
2023-05-14T03:52:27.200Z,628.00
2023-05-14T03:53:27.170Z,668.00
2023-05-14T03:54:27.193Z,704.00
2023-05-14T03:55:27.147Z,744.00
2023-05-14T03:56:27.148Z,780.00
2023-05-14T03:57:27.153Z,824.00
2023-05-14T03:58:27.117Z,864.00
2023-05-14T03:59:27.118Z,904.00
2023-05-14T04:00:27.295Z,948.00
2023-05-14T04:01:27.093Z,992.00
2023-05-14T04:02:27.194Z,1036.00
2023-05-14T04:03:27.248Z,1084.00
2023-05-14T04:04:27.073Z,1128.00
2023-05-14T04:05:27.058Z,1172.00
2023-05-14T04:06:27.046Z,1220.00
2023-05-14T04:07:27.043Z,1268.00
2023-05-14T04:08:27.006Z,1320.00
2023-05-14T04:09:27.017Z,1368.00
2023-05-14T04:10:27.039Z,1420.00
2023-05-14T04:11:26.967Z,1468.00
2023-05-14T04:12:26.961Z,1520.00
2023-05-14T04:13:26.947Z,1572.00
2023-05-14T04:14:26.952Z,1624.00
2023-05-14T04:15:26.986Z,1676.00
2023-05-14T04:16:26.940Z,1724.00
2023-05-14T04:17:26.995Z,1780.00
2023-05-14T04:18:26.956Z,1832.00
2023-05-14T04:19:26.881Z,1888.00
2023-05-14T04:20:26.876Z,1940.00
2023-05-14T04:21:26.857Z,1996.00
2023-05-14T04:22:26.849Z,2048.00
2023-05-14T04:23:26.855Z,2104.00
2023-05-14T04:24:26.869Z,2160.00
2023-05-14T04:25:26.808Z,2216.00
2023-05-14T04:26:26.831Z,2272.00
2023-05-14T04:27:26.835Z,2324.00
2023-05-14T04:28:26.784Z,2380.00
2023-05-14T04:29:26.773Z,2432.00
2023-05-14T04:30:26.776Z,2488.00
2023-05-14T04:31:26.795Z,2548.00
2023-05-14T04:32:26.780Z,2600.00
2023-05-14T04:33:26.732Z,2656.00
2023-05-14T04:34:26.729Z,2708.00
2023-05-14T04:35:26.706Z,2768.00
2023-05-14T04:36:26.701Z,2820.00
2023-05-14T04:37:26.695Z,2876.00
2023-05-14T04:38:26.663Z,2932.00
2023-05-14T04:39:26.660Z,2984.00
2023-05-14T04:40:26.982Z,3036.00
2023-05-14T04:41:26.643Z,3096.00
2023-05-14T04:42:26.707Z,3148.00
2023-05-14T04:43:26.616Z,3204.00
2023-05-14T04:44:26.616Z,3256.00
2023-05-14T04:45:26.622Z,3312.00
2023-05-14T04:46:26.630Z,3368.00
2023-05-14T04:47:26.639Z,3420.00
2023-05-14T04:48:26.559Z,3472.00
2023-05-14T04:49:26.557Z,3528.00
2023-05-14T04:50:26.533Z,3584.00
2023-05-14T04:51:26.586Z,3640.00
2023-05-14T04:52:26.532Z,3700.00
2023-05-14T04:53:26.496Z,3820.00
2023-05-14T04:54:26.599Z,4112.00
2023-05-14T04:55:26.487Z,4184.00
2023-05-14T04:56:26.502Z,4072.00
2023-05-14T04:57:26.456Z,4208.00
2023-05-14T04:58:26.464Z,4488.00
2023-05-14T04:59:26.433Z,4524.00
2023-05-14T05:00:26.679Z,4608.00
2023-05-14T05:01:26.429Z,5044.00
2023-05-14T05:02:26.438Z,5360.00
2023-05-14T05:03:26.492Z,5452.00
2023-05-14T05:04:26.411Z,5540.00
2023-05-14T05:05:26.374Z,5624.00
2023-05-14T05:06:26.359Z,5720.00
2023-05-14T05:07:26.357Z,5816.00
2023-05-14T05:08:26.368Z,5920.00
2023-05-14T05:09:26.353Z,6028.00
2023-05-14T05:27:31.074Z,7376.00
2023-05-14T05:28:31.374Z,7560.00
2023-05-14T05:29:31.054Z,7784.00
2023-05-14T05:30:31.003Z,7952.00
2023-05-14T05:31:31.081Z,8052.00
2023-05-14T05:32:31.026Z,7992.00
2023-05-14T05:33:30.970Z,7768.00
2023-05-14T05:34:30.958Z,7468.00
2023-05-14T05:35:30.951Z,7044.00
2023-05-14T05:36:30.954Z,7052.00
2023-05-14T05:37:30.984Z,8140.00
2023-05-14T05:38:30.959Z,7676.00
2023-05-14T05:39:30.908Z,7520.00
2023-05-14T05:40:30.892Z,8060.00
2023-05-14T05:41:30.914Z,8252.00
2023-05-14T05:42:30.924Z,8612.00
2023-05-14T05:43:30.898Z,8736.00
2023-05-14T05:44:30.862Z,8632.00
2023-05-14T05:45:30.850Z,8716.00
2023-05-14T05:46:30.836Z,8920.00
2023-05-14T05:47:30.878Z,9084.00
2023-05-14T05:48:30.822Z,9248.00
2023-05-14T05:49:30.794Z,9308.00
2023-05-14T05:50:30.793Z,9328.00
2023-05-14T05:51:30.769Z,9448.00
2023-05-14T05:52:30.769Z,9568.00
2023-05-14T05:53:30.755Z,9688.00
2023-05-14T05:54:30.741Z,9832.00
2023-05-14T05:55:30.774Z,9992.00
2023-05-14T05:56:30.734Z,10144.00
2023-05-14T05:57:30.703Z,10300.00
2023-05-14T05:58:30.718Z,10452.00
2023-05-14T05:59:30.729Z,10580.00
2023-05-14T06:00:30.687Z,10716.00
2023-05-14T06:01:30.662Z,10880.00
2023-05-14T06:02:30.877Z,10940.00
2023-05-14T06:03:30.641Z,11052.00
2023-05-14T06:04:30.642Z,11180.00
2023-05-14T06:05:30.689Z,11304.00
2023-05-14T06:06:30.629Z,11448.00
2023-05-14T06:07:30.609Z,11572.00
2023-05-14T06:08:30.617Z,11620.00
2023-05-14T06:09:30.598Z,11412.00
2023-05-14T06:10:30.578Z,10664.00
2023-05-14T06:11:30.584Z,10616.00
2023-05-14T06:12:30.553Z,10576.00
2023-05-14T06:13:30.550Z,11044.00
2023-05-14T06:14:30.519Z,10588.00
2023-05-14T06:15:30.557Z,10088.00
2023-05-14T06:16:30.551Z,10828.00
2023-05-14T06:17:30.532Z,10808.00
2023-05-14T06:18:30.527Z,9680.00
2023-05-14T06:19:30.468Z,9428.00
2023-05-14T06:20:30.454Z,9072.00
2023-05-14T06:21:30.461Z,9776.00
2023-05-14T06:22:30.458Z,10388.00
2023-05-14T06:23:30.475Z,10308.00
2023-05-14T06:24:30.405Z,10388.00
2023-05-14T06:25:30.414Z,10544.00
2023-05-14T06:26:30.419Z,9752.00
2023-05-14T06:27:30.403Z,9848.00
2023-05-14T06:28:30.387Z,9352.00
2023-05-14T06:29:30.368Z,8808.00
2023-05-14T06:30:30.339Z,8748.00
2023-05-14T06:31:30.471Z,8768.00
2023-05-14T06:32:30.389Z,8776.00
2023-05-14T06:33:30.325Z,8800.00
2023-05-14T06:34:30.308Z,8808.00
2023-05-14T06:35:30.293Z,8832.00
2023-05-14T06:36:30.276Z,8912.00
2023-05-14T06:37:30.278Z,9040.00
2023-05-14T06:38:30.267Z,9044.00
2023-05-14T06:39:30.266Z,9088.00
2023-05-14T06:40:30.238Z,9132.00
2023-05-14T06:41:30.233Z,9140.00
2023-05-14T06:42:30.214Z,9228.00
2023-05-14T06:43:30.221Z,9388.00
2023-05-14T06:44:30.227Z,9336.00
2023-05-14T06:45:32.374Z,9412.00
2023-05-14T06:46:30.176Z,9540.00
2023-05-14T06:47:30.260Z,9600.00
2023-05-14T06:48:30.282Z,9760.00
2023-05-14T06:49:30.141Z,10468.00
2023-05-14T06:50:30.121Z,10848.00
2023-05-14T06:51:30.125Z,10824.00
2023-05-14T06:52:30.097Z,10572.00
2023-05-14T06:53:30.106Z,11044.00
2023-05-14T06:54:30.079Z,11112.00
2023-05-14T06:55:30.070Z,11508.00
2023-05-14T06:56:30.057Z,11160.00
2023-05-14T06:57:30.130Z,11888.00
2023-05-14T06:58:30.051Z,12052.00
2023-05-14T06:59:30.053Z,11024.00
2023-05-14T07:00:30.026Z,10896.00
2023-05-14T07:01:30.025Z,10520.00
2023-05-14T07:02:30.075Z,10168.00
2023-05-14T07:03:30.029Z,9936.00
2023-05-14T07:04:30.021Z,9884.00
2023-05-14T07:05:29.961Z,10204.00
2023-05-14T07:06:29.946Z,10124.00
2023-05-14T07:07:29.935Z,10592.00
2023-05-14T07:08:29.921Z,10248.00
2023-05-14T07:09:29.936Z,9960.00
2023-05-14T07:10:29.920Z,10896.00
2023-05-14T07:11:29.935Z,10856.00
2023-05-14T07:12:29.879Z,12288.00
2023-05-14T07:13:29.907Z,10832.00
2023-05-14T07:14:29.897Z,10548.00
2023-05-14T07:15:29.858Z,12576.00
2023-05-14T07:16:29.862Z,13708.00
2023-05-14T07:17:29.936Z,13160.00
2023-05-14T07:18:29.877Z,14508.00
2023-05-14T07:19:29.833Z,13344.00
2023-05-14T07:20:29.810Z,12960.00
2023-05-14T07:21:29.789Z,13468.00
2023-05-14T07:22:29.825Z,14728.00
2023-05-14T07:23:29.765Z,14456.00
2023-05-14T07:24:29.754Z,15000.00
2023-05-14T07:25:29.740Z,15168.00
2023-05-14T07:26:29.741Z,13864.00
2023-05-14T07:27:36.729Z,15084.00
2023-05-14T07:28:29.719Z,15584.00
2023-05-14T07:29:29.698Z,16192.00
2023-05-14T07:30:29.685Z,16832.00
2023-05-14T07:31:29.713Z,17056.00
2023-05-14T07:32:29.666Z,17152.00
2023-05-14T07:33:29.661Z,16576.00
2023-05-14T07:34:29.639Z,17312.00
2023-05-14T07:35:29.699Z,17568.00
2023-05-14T07:36:29.633Z,16768.00
2023-05-14T07:37:29.611Z,18016.00
2023-05-14T07:38:29.645Z,17568.00
2023-05-14T07:39:29.589Z,17568.00
2023-05-14T07:40:29.585Z,17248.00
2023-05-14T07:41:29.572Z,18368.00
2023-05-14T07:42:36.360Z,18496.00
2023-05-14T07:43:29.567Z,18816.00
2023-05-14T07:44:29.560Z,18368.00
2023-05-14T07:45:29.527Z,18176.00
2023-05-14T07:46:29.558Z,17408.00
2023-05-14T07:47:30.395Z,15480.00
2023-05-14T07:48:29.518Z,19648.00
2023-05-14T07:49:29.485Z,17152.00
2023-05-14T07:50:29.464Z,18016.00
2023-05-14T07:51:29.487Z,20352.00
2023-05-14T07:52:29.488Z,20128.00
2023-05-14T07:53:29.436Z,21440.00
2023-05-14T07:54:29.421Z,20928.00
2023-05-14T07:55:29.450Z,21056.00
2023-05-14T07:56:29.400Z,21888.00
2023-05-14T07:57:29.411Z,22368.00
2023-05-14T07:58:29.399Z,22528.00
2023-05-14T07:59:29.371Z,22464.00
2023-05-14T08:00:29.357Z,22336.00
2023-05-14T08:01:29.360Z,21984.00
2023-05-14T08:02:29.428Z,22816.00
2023-05-14T08:03:29.400Z,23040.00
2023-05-14T08:04:29.505Z,23008.00
2023-05-14T08:05:29.332Z,23520.00
2023-05-14T08:06:29.291Z,23616.00
2023-05-14T08:07:29.306Z,22336.00
2023-05-14T08:08:29.271Z,19968.00
2023-05-14T08:09:29.275Z,22752.00
2023-05-14T08:10:29.523Z,22528.00
2023-05-14T08:11:29.240Z,23296.00
2023-05-14T08:12:29.233Z,23712.00
2023-05-14T08:13:29.217Z,23776.00
2023-05-14T08:14:29.230Z,23552.00
2023-05-14T08:15:29.205Z,23328.00
2023-05-14T08:16:29.217Z,23328.00
2023-05-14T08:17:29.199Z,23936.00
2023-05-14T08:18:29.205Z,23488.00
2023-05-14T08:19:29.155Z,23872.00
2023-05-14T08:20:29.180Z,23904.00
2023-05-14T08:21:29.168Z,24032.00
2023-05-14T08:22:29.129Z,24256.00
2023-05-14T08:23:29.144Z,24256.00
2023-05-14T08:24:29.102Z,24352.00
2023-05-14T08:25:29.091Z,24448.00
2023-05-14T08:26:29.079Z,24448.00
2023-05-14T08:27:29.094Z,24448.00
2023-05-14T08:28:29.076Z,24544.00
2023-05-14T08:29:29.059Z,24480.00
2023-05-14T08:30:29.100Z,24608.00
2023-05-14T08:31:29.187Z,24576.00
2023-05-14T08:32:29.057Z,24736.00
2023-05-14T08:33:29.032Z,24512.00
2023-05-14T08:34:28.990Z,22432.00
2023-05-14T08:35:28.985Z,24096.00
2023-05-14T08:36:28.978Z,24128.00
2023-05-14T08:37:28.976Z,23968.00
2023-05-14T08:38:28.959Z,24160.00
2023-05-14T08:39:28.960Z,24288.00
2023-05-14T08:40:28.939Z,24448.00
2023-05-14T08:41:28.935Z,24608.00
2023-05-14T08:42:28.917Z,24512.00
2023-05-14T08:43:28.911Z,24448.00
2023-05-14T08:44:28.896Z,24512.00
2023-05-14T08:45:28.877Z,24576.00
2023-05-14T08:46:28.859Z,24480.00
2023-05-14T08:47:28.867Z,24512.00
2023-05-14T08:48:28.979Z,24512.00
2023-05-14T08:49:28.836Z,25024.00
2023-05-14T08:50:29.281Z,24832.00
2023-05-14T08:51:28.808Z,24928.00
2023-05-14T08:52:28.792Z,25504.00
2023-05-14T08:53:28.784Z,25344.00
2023-05-14T08:54:28.782Z,25440.00
2023-05-14T08:55:28.804Z,25056.00
2023-05-14T08:56:28.758Z,25120.00
2023-05-14T08:57:28.750Z,24608.00
2023-05-14T08:58:28.732Z,24928.00
2023-05-14T08:59:28.715Z,24800.00
2023-05-14T09:00:28.717Z,24768.00
2023-05-14T09:01:28.782Z,24832.00
2023-05-14T09:02:28.714Z,24768.00
2023-05-14T09:03:28.696Z,24768.00
2023-05-14T09:04:28.668Z,24768.00
2023-05-14T09:05:28.649Z,25280.00
2023-05-14T09:06:28.664Z,25632.00
2023-05-14T09:07:28.647Z,25184.00
2023-05-14T09:08:28.705Z,25504.00
2023-05-14T09:09:28.633Z,25824.00
2023-05-14T09:10:28.620Z,25824.00
2023-05-14T09:11:28.609Z,25984.00
2023-05-14T09:12:28.590Z,26112.00
2023-05-14T09:13:28.591Z,25856.00
2023-05-14T09:14:28.615Z,24416.00
2023-05-14T09:15:28.579Z,21312.00
2023-05-14T09:16:28.590Z,25088.00
2023-05-14T09:17:28.580Z,25440.00
2023-05-14T09:18:28.602Z,25344.00
2023-05-14T09:19:28.507Z,25696.00
2023-05-14T09:20:28.987Z,25152.00
2023-05-14T09:21:28.482Z,24736.00
2023-05-14T09:22:28.541Z,24928.00
2023-05-14T09:23:28.481Z,25120.00
2023-05-14T09:24:28.478Z,25152.00
2023-05-14T09:25:28.437Z,25152.00
2023-05-14T09:26:28.434Z,23360.00
2023-05-14T09:27:28.560Z,25856.00
2023-05-14T09:28:35.921Z,25504.00
2023-05-14T09:29:28.417Z,24960.00
2023-05-14T09:30:28.384Z,24640.00
2023-05-14T09:31:28.426Z,26016.00
2023-05-14T09:32:28.385Z,25728.00
2023-05-14T09:33:28.363Z,25984.00
2023-05-14T09:34:28.340Z,26496.00
2023-05-14T09:35:28.385Z,26496.00
2023-05-14T09:36:28.324Z,26304.00
2023-05-14T09:37:28.364Z,26080.00
2023-05-14T09:38:28.299Z,26304.00
2023-05-14T09:39:28.284Z,26240.00
2023-05-14T09:40:28.668Z,26336.00
2023-05-14T09:41:28.275Z,26208.00
2023-05-14T09:42:28.263Z,26592.00
2023-05-14T09:43:28.280Z,26624.00
2023-05-14T09:44:28.255Z,26624.00
2023-05-14T09:45:28.244Z,26944.00
2023-05-14T09:46:28.240Z,26944.00
2023-05-14T09:47:28.260Z,15288.00
2023-05-14T09:48:28.233Z,16328.00
2023-05-14T09:49:28.176Z,27840.00
2023-05-14T09:50:28.218Z,27840.00
2023-05-14T09:51:28.168Z,27328.00
2023-05-14T09:52:28.164Z,27200.00
2023-05-14T09:53:28.134Z,27040.00
2023-05-14T09:54:28.177Z,28064.00
2023-05-14T09:55:28.127Z,28224.00
2023-05-14T09:56:28.137Z,27488.00
2023-05-14T09:57:28.093Z,23680.00
2023-05-14T09:58:28.087Z,15108.00
2023-05-14T09:59:28.107Z,14612.00
2023-05-14T10:00:28.061Z,23616.00
2023-05-14T10:01:28.091Z,28608.00
2023-05-14T10:02:28.102Z,28512.00
2023-05-14T10:03:28.040Z,27904.00
2023-05-14T10:04:28.121Z,15240.00
2023-05-14T10:05:28.027Z,14216.00
2023-05-14T10:06:28.058Z,28128.00
2023-05-14T10:07:28.004Z,13692.00
2023-05-14T10:08:27.991Z,13304.00
2023-05-14T10:09:27.982Z,13124.00
2023-05-14T10:10:28.249Z,13180.00
2023-05-14T10:11:27.962Z,13268.00
2023-05-14T10:12:27.930Z,13460.00
2023-05-14T10:13:27.921Z,15284.00
2023-05-14T10:14:27.929Z,13916.00
2023-05-14T10:15:27.924Z,27808.00
2023-05-14T10:16:27.919Z,27584.00
2023-05-14T10:17:27.899Z,27136.00
2023-05-14T10:18:27.913Z,27232.00
2023-05-14T10:19:27.995Z,27552.00
2023-05-14T10:20:27.850Z,27808.00
2023-05-14T10:21:27.846Z,27744.00
2023-05-14T10:22:27.822Z,27840.00
2023-05-14T10:23:27.822Z,27648.00
2023-05-14T10:24:27.814Z,27936.00
2023-05-14T10:25:27.803Z,26080.00
2023-05-14T10:26:27.791Z,14700.00
2023-05-14T10:27:27.778Z,14664.00
2023-05-14T10:28:27.779Z,14704.00
2023-05-14T10:29:27.748Z,14680.00
2023-05-14T10:30:27.811Z,14600.00
2023-05-14T10:31:27.821Z,15160.00
2023-05-14T10:32:27.775Z,15116.00
2023-05-14T10:33:27.751Z,14932.00
2023-05-14T10:34:27.696Z,16580.00
2023-05-14T10:35:27.684Z,26080.00
2023-05-14T10:36:27.692Z,15332.00
2023-05-14T10:37:27.719Z,15200.00
2023-05-14T10:38:27.664Z,15272.00
2023-05-14T10:39:27.645Z,15400.00
2023-05-14T10:40:27.645Z,15648.00
2023-05-14T10:41:27.625Z,20928.00
2023-05-14T10:42:27.666Z,22720.00
2023-05-14T10:43:27.602Z,18720.00
2023-05-14T10:44:27.589Z,24128.00
2023-05-14T10:45:27.585Z,16264.00
2023-05-14T10:46:27.621Z,16148.00
2023-05-14T10:47:27.594Z,18208.00
2023-05-14T10:48:27.549Z,16372.00
2023-05-14T10:49:42.393Z,16228.00
2023-05-14T10:50:27.582Z,20672.00
2023-05-14T10:51:27.532Z,23008.00
2023-05-14T10:52:27.518Z,20576.00
2023-05-14T10:53:27.501Z,22304.00
2023-05-14T10:54:27.492Z,18432.00
2023-05-14T10:55:27.484Z,25824.00
2023-05-14T10:56:27.460Z,16668.00
2023-05-14T10:57:27.516Z,17376.00
2023-05-14T10:58:27.446Z,18656.00
2023-05-14T10:59:27.438Z,23552.00
2023-05-14T11:00:27.433Z,23296.00
2023-05-14T11:01:27.431Z,23776.00
2023-05-14T11:02:27.447Z,23552.00
2023-05-14T11:03:27.428Z,21728.00
2023-05-14T11:04:27.375Z,19264.00
2023-05-14T11:05:27.429Z,26464.00
2023-05-14T11:06:27.366Z,25664.00
2023-05-14T11:07:27.376Z,22432.00
2023-05-14T11:08:29.285Z,17472.00
2023-05-14T11:09:27.319Z,19872.00
2023-05-14T11:10:27.323Z,22080.00
2023-05-14T11:11:27.354Z,24448.00
2023-05-14T11:12:27.314Z,29600.00
2023-05-14T11:13:27.275Z,30048.00
2023-05-14T11:14:27.267Z,30144.00
2023-05-14T11:15:27.303Z,20224.00
2023-05-14T11:16:27.318Z,17568.00
2023-05-14T11:17:27.280Z,16736.00
2023-05-14T11:18:27.253Z,16388.00
2023-05-14T11:19:27.238Z,15976.00
2023-05-14T11:20:27.352Z,15732.00
2023-05-14T11:21:27.257Z,15516.00
2023-05-14T11:22:27.197Z,15252.00
2023-05-14T11:23:27.174Z,15044.00
2023-05-14T11:24:28.015Z,15016.00
2023-05-14T11:25:27.149Z,16928.00
2023-05-14T11:26:27.193Z,23136.00
2023-05-14T11:27:27.138Z,12884.00
2023-05-14T11:28:27.124Z,11892.00
2023-05-14T11:29:35.650Z,10976.00
2023-05-14T11:30:27.098Z,10208.00
2023-05-14T11:31:27.107Z,9652.00
2023-05-14T11:32:27.089Z,9164.00
2023-05-14T11:33:27.064Z,8776.00
2023-05-14T11:34:27.069Z,8308.00
2023-05-14T11:35:27.060Z,7756.00
2023-05-14T11:36:27.090Z,7272.00
2023-05-14T11:37:27.024Z,6868.00
2023-05-14T11:38:27.056Z,6516.00
2023-05-14T11:39:27.000Z,6320.00
2023-05-14T11:40:27.035Z,6096.00
2023-05-14T11:41:27.030Z,5880.00
2023-05-14T11:42:26.969Z,5720.00
2023-05-14T11:43:26.977Z,5620.00
2023-05-14T11:44:26.956Z,5548.00
2023-05-14T11:45:26.947Z,5548.00
2023-05-14T11:46:26.968Z,5596.00
2023-05-14T11:47:26.966Z,5692.00
2023-05-14T11:48:26.918Z,5804.00
2023-05-14T11:49:26.923Z,5912.00
2023-05-14T11:50:27.125Z,6044.00
2023-05-14T11:51:26.937Z,6144.00
2023-05-14T11:52:26.879Z,6212.00
2023-05-14T11:53:26.898Z,6216.00
2023-05-14T11:54:26.845Z,6204.00
2023-05-14T11:55:26.861Z,6232.00
2023-05-14T11:56:26.836Z,6280.00
2023-05-14T11:57:26.809Z,6388.00
2023-05-14T11:58:26.831Z,6488.00
2023-05-14T11:59:26.786Z,6604.00
2023-05-14T12:00:26.895Z,6632.00
2023-05-14T12:01:26.776Z,6584.00
2023-05-14T12:02:26.798Z,6592.00
2023-05-14T12:03:27.109Z,6596.00
2023-05-14T12:04:26.742Z,6628.00
2023-05-14T12:05:26.728Z,6704.00
2023-05-14T12:06:26.765Z,6748.00
2023-05-14T12:07:26.713Z,6780.00
2023-05-14T12:08:26.686Z,6788.00
2023-05-14T12:09:26.683Z,6796.00
2023-05-14T12:10:26.935Z,6808.00
2023-05-14T12:11:26.649Z,6800.00
2023-05-14T12:12:26.642Z,6752.00
2023-05-14T12:13:26.649Z,6736.00
2023-05-14T12:14:26.619Z,6756.00
2023-05-14T12:15:26.620Z,6836.00
2023-05-14T12:16:26.644Z,6968.00
2023-05-14T12:17:26.637Z,7128.00
2023-05-14T12:18:26.632Z,7308.00
2023-05-14T12:19:26.677Z,7472.00
2023-05-14T12:20:26.677Z,7564.00
2023-05-14T12:21:26.549Z,7648.00
2023-05-14T12:22:26.545Z,7740.00
2023-05-14T12:23:26.539Z,7828.00
2023-05-14T12:24:26.512Z,7968.00
2023-05-14T12:25:26.511Z,8096.00
2023-05-14T12:26:26.489Z,8268.00
2023-05-14T12:27:26.518Z,8428.00
2023-05-14T12:28:26.475Z,8596.00
2023-05-14T12:29:26.454Z,8752.00
2023-05-14T12:30:26.442Z,8916.00
2023-05-14T12:31:26.507Z,9100.00
2023-05-14T12:32:26.432Z,9300.00
2023-05-14T12:33:26.413Z,9488.00
2023-05-14T12:34:26.403Z,9668.00
2023-05-14T12:35:26.641Z,9860.00